sensor_id;sensor_type;location;lat;lon;timestamp;P1;durP1;ratioP1;P2;durP2;ratioP2
11996;SDS011;6058;48.704;9.474;2023-02-11T00:00:53;26.40;;;13.27;;
11996;SDS011;6058;48.704;9.474;2023-02-11T00:03:22;22.43;;;13.03;;
11996;SDS011;6058;48.704;9.474;2023-02-11T00:05:56;19.37;;;10.47;;
11996;SDS011;6058;48.704;9.474;2023-02-11T00:08:24;20.97;;;11.73;;
11996;SDS011;6058;48.704;9.474;2023-02-11T00:10:51;22.83;;;12.33;;
11996;SDS011;6058;48.704;9.474;2023-02-11T00:13:18;24.20;;;11.70;;
11996;SDS011;6058;48.704;9.474;2023-02-11T00:15:45;18.37;;;10.43;;
11996;SDS011;6058;48.704;9.474;2023-02-11T00:18:12;20.67;;;11.70;;
11996;SDS011;6058;48.704;9.474;2023-02-11T00:20:41;18.47;;;10.23;;
11996;SDS011;6058;48.704;9.474;2023-02-11T00:23:08;19.77;;;11.17;;
11996;SDS011;6058;48.704;9.474;2023-02-11T00:25:39;22.23;;;12.47;;
11996;SDS011;6058;48.704;9.474;2023-02-11T00:28:06;27.27;;;12.83;;
11996;SDS011;6058;48.704;9.474;2023-02-11T00:30:33;22.97;;;11.93;;
11996;SDS011;6058;48.704;9.474;2023-02-11T00:33:04;27.77;;;13.73;;
11996;SDS011;6058;48.704;9.474;2023-02-11T00:35:31;18.37;;;11.43;;
11996;SDS011;6058;48.704;9.474;2023-02-11T00:37:59;22.37;;;11.80;;
11996;SDS011;6058;48.704;9.474;2023-02-11T00:40:26;19.43;;;11.00;;
11996;SDS011;6058;48.704;9.474;2023-02-11T00:42:54;21.07;;;11.70;;
11996;SDS011;6058;48.704;9.474;2023-02-11T00:45:21;23.00;;;12.23;;
11996;SDS011;6058;48.704;9.474;2023-02-11T00:47:48;18.90;;;11.33;;
11996;SDS011;6058;48.704;9.474;2023-02-11T00:50:15;20.13;;;11.53;;
11996;SDS011;6058;48.704;9.474;2023-02-11T00:52:42;21.80;;;11.53;;
11996;SDS011;6058;48.704;9.474;2023-02-11T00:55:11;23.33;;;12.60;;
11996;SDS011;6058;48.704;9.474;2023-02-11T00:57:38;21.87;;;12.73;;
11996;SDS011;6058;48.704;9.474;2023-02-11T01:00:05;22.53;;;12.80;;
11996;SDS011;6058;48.704;9.474;2023-02-11T01:02:33;23.63;;;12.03;;
11996;SDS011;6058;48.704;9.474;2023-02-11T01:05:00;19.90;;;11.57;;
11996;SDS011;6058;48.704;9.474;2023-02-11T01:07:27;21.17;;;12.37;;
11996;SDS011;6058;48.704;9.474;2023-02-11T01:09:54;20.50;;;11.87;;
11996;SDS011;6058;48.704;9.474;2023-02-11T01:12:23;24.50;;;12.07;;
11996;SDS011;6058;48.704;9.474;2023-02-11T01:14:52;22.03;;;13.20;;
11996;SDS011;6058;48.704;9.474;2023-02-11T01:17:19;20.07;;;11.30;;
11996;SDS011;6058;48.704;9.474;2023-02-11T01:19:46;20.93;;;11.03;;
11996;SDS011;6058;48.704;9.474;2023-02-11T01:22:13;18.60;;;10.77;;
11996;SDS011;6058;48.704;9.474;2023-02-11T01:24:41;21.90;;;11.30;;
11996;SDS011;6058;48.704;9.474;2023-02-11T01:27:08;22.70;;;11.27;;
11996;SDS011;6058;48.704;9.474;2023-02-11T01:29:36;20.50;;;11.67;;
11996;SDS011;6058;48.704;9.474;2023-02-11T01:32:03;23.57;;;12.93;;
11996;SDS011;6058;48.704;9.474;2023-02-11T01:34:31;19.83;;;12.30;;
11996;SDS011;6058;48.704;9.474;2023-02-11T01:36:58;22.50;;;12.43;;
11996;SDS011;6058;48.704;9.474;2023-02-11T01:39:25;21.23;;;11.43;;
11996;SDS011;6058;48.704;9.474;2023-02-11T01:41:52;18.40;;;10.53;;
11996;SDS011;6058;48.704;9.474;2023-02-11T01:44:21;26.60;;;12.90;;
11996;SDS011;6058;48.704;9.474;2023-02-11T01:46:49;22.43;;;11.67;;
11996;SDS011;6058;48.704;9.474;2023-02-11T01:49:17;21.27;;;11.23;;
11996;SDS011;6058;48.704;9.474;2023-02-11T01:51:45;23.03;;;13.03;;
11996;SDS011;6058;48.704;9.474;2023-02-11T01:54:14;24.67;;;12.87;;
11996;SDS011;6058;48.704;9.474;2023-02-11T01:57:00;22.13;;;13.03;;
11996;SDS011;6058;48.704;9.474;2023-02-11T01:59:47;22.57;;;12.30;;
11996;SDS011;6058;48.704;9.474;2023-02-11T02:02:16;19.57;;;11.53;;
11996;SDS011;6058;48.704;9.474;2023-02-11T02:04:45;22.97;;;12.37;;
11996;SDS011;6058;48.704;9.474;2023-02-11T02:07:16;25.03;;;12.80;;
11996;SDS011;6058;48.704;9.474;2023-02-11T02:09:47;26.37;;;13.13;;
11996;SDS011;6058;48.704;9.474;2023-02-11T02:12:15;22.70;;;11.93;;
11996;SDS011;6058;48.704;9.474;2023-02-11T02:14:42;19.37;;;11.33;;
11996;SDS011;6058;48.704;9.474;2023-02-11T02:17:09;19.63;;;11.17;;
11996;SDS011;6058;48.704;9.474;2023-02-11T02:19:52;19.90;;;11.90;;
11996;SDS011;6058;48.704;9.474;2023-02-11T02:25:14;21.77;;;11.27;;
11996;SDS011;6058;48.704;9.474;2023-02-11T02:27:46;21.60;;;12.30;;
11996;SDS011;6058;48.704;9.474;2023-02-11T02:30:34;22.67;;;12.47;;
11996;SDS011;6058;48.704;9.474;2023-02-11T02:33:11;16.43;;;10.50;;
11996;SDS011;6058;48.704;9.474;2023-02-11T02:35:41;26.03;;;12.93;;
11996;SDS011;6058;48.704;9.474;2023-02-11T02:38:12;21.37;;;12.03;;
11996;SDS011;6058;48.704;9.474;2023-02-11T02:40:43;26.30;;;13.80;;
11996;SDS011;6058;48.704;9.474;2023-02-11T02:43:11;25.97;;;14.43;;
11996;SDS011;6058;48.704;9.474;2023-02-11T02:45:39;27.63;;;13.40;;
11996;SDS011;6058;48.704;9.474;2023-02-11T02:48:20;22.10;;;12.43;;
11996;SDS011;6058;48.704;9.474;2023-02-11T02:50:49;23.67;;;12.60;;
11996;SDS011;6058;48.704;9.474;2023-02-11T02:53:19;23.13;;;12.30;;
11996;SDS011;6058;48.704;9.474;2023-02-11T02:55:54;25.97;;;12.40;;
11996;SDS011;6058;48.704;9.474;2023-02-11T02:58:36;24.37;;;13.90;;
11996;SDS011;6058;48.704;9.474;2023-02-11T03:01:07;25.20;;;13.17;;
11996;SDS011;6058;48.704;9.474;2023-02-11T03:03:40;19.70;;;11.27;;
11996;SDS011;6058;48.704;9.474;2023-02-11T03:06:10;25.50;;;11.50;;
11996;SDS011;6058;48.704;9.474;2023-02-11T03:08:39;21.70;;;12.90;;
11996;SDS011;6058;48.704;9.474;2023-02-11T03:11:09;13.00;;;8.10;;
11996;SDS011;6058;48.704;9.474;2023-02-11T03:13:38;18.70;;;11.57;;
11996;SDS011;6058;48.704;9.474;2023-02-11T03:16:06;21.60;;;11.47;;
11996;SDS011;6058;48.704;9.474;2023-02-11T03:18:34;23.00;;;13.50;;
11996;SDS011;6058;48.704;9.474;2023-02-11T03:21:02;22.07;;;12.57;;
11996;SDS011;6058;48.704;9.474;2023-02-11T03:23:34;26.83;;;12.73;;
11996;SDS011;6058;48.704;9.474;2023-02-11T03:26:03;21.73;;;12.50;;
11996;SDS011;6058;48.704;9.474;2023-02-11T03:28:34;24.63;;;12.50;;
11996;SDS011;6058;48.704;9.474;2023-02-11T03:31:06;24.43;;;13.83;;
11996;SDS011;6058;48.704;9.474;2023-02-11T03:33:35;22.87;;;12.43;;
11996;SDS011;6058;48.704;9.474;2023-02-11T03:36:04;18.63;;;10.70;;
11996;SDS011;6058;48.704;9.474;2023-02-11T03:38:33;24.13;;;11.43;;
11996;SDS011;6058;48.704;9.474;2023-02-11T03:41:02;22.33;;;11.53;;
11996;SDS011;6058;48.704;9.474;2023-02-11T03:43:32;22.67;;;12.77;;
11996;SDS011;6058;48.704;9.474;2023-02-11T03:45:59;26.20;;;12.20;;
11996;SDS011;6058;48.704;9.474;2023-02-11T03:48:28;26.47;;;13.20;;
11996;SDS011;6058;48.704;9.474;2023-02-11T03:50:57;20.00;;;11.50;;
11996;SDS011;6058;48.704;9.474;2023-02-11T03:53:25;19.57;;;11.57;;
11996;SDS011;6058;48.704;9.474;2023-02-11T03:55:54;21.27;;;12.67;;
11996;SDS011;6058;48.704;9.474;2023-02-11T03:58:22;21.50;;;11.30;;
11996;SDS011;6058;48.704;9.474;2023-02-11T04:00:49;23.27;;;13.13;;
11996;SDS011;6058;48.704;9.474;2023-02-11T04:03:16;22.50;;;13.00;;
11996;SDS011;6058;48.704;9.474;2023-02-11T04:05:44;19.13;;;12.10;;
11996;SDS011;6058;48.704;9.474;2023-02-11T04:08:11;20.23;;;12.03;;
11996;SDS011;6058;48.704;9.474;2023-02-11T04:10:38;29.47;;;14.43;;
11996;SDS011;6058;48.704;9.474;2023-02-11T04:13:07;27.37;;;14.90;;
11996;SDS011;6058;48.704;9.474;2023-02-11T04:15:34;18.13;;;12.37;;
11996;SDS011;6058;48.704;9.474;2023-02-11T04:18:01;21.60;;;13.37;;
11996;SDS011;6058;48.704;9.474;2023-02-11T04:20:29;23.93;;;13.40;;
11996;SDS011;6058;48.704;9.474;2023-02-11T04:22:56;24.07;;;13.13;;
11996;SDS011;6058;48.704;9.474;2023-02-11T04:25:23;25.63;;;14.20;;
11996;SDS011;6058;48.704;9.474;2023-02-11T04:27:51;22.77;;;11.87;;
11996;SDS011;6058;48.704;9.474;2023-02-11T04:30:19;23.97;;;12.90;;
11996;SDS011;6058;48.704;9.474;2023-02-11T04:32:47;27.43;;;13.87;;
11996;SDS011;6058;48.704;9.474;2023-02-11T04:35:14;24.27;;;12.67;;
11996;SDS011;6058;48.704;9.474;2023-02-11T04:37:41;25.20;;;12.13;;
11996;SDS011;6058;48.704;9.474;2023-02-11T04:40:08;21.57;;;11.40;;
11996;SDS011;6058;48.704;9.474;2023-02-11T04:42:35;21.23;;;11.93;;
11996;SDS011;6058;48.704;9.474;2023-02-11T04:45:03;21.47;;;12.80;;
11996;SDS011;6058;48.704;9.474;2023-02-11T04:47:32;21.83;;;13.67;;
11996;SDS011;6058;48.704;9.474;2023-02-11T04:50:00;19.47;;;12.27;;
11996;SDS011;6058;48.704;9.474;2023-02-11T04:52:27;25.20;;;13.27;;
11996;SDS011;6058;48.704;9.474;2023-02-11T04:54:54;24.07;;;14.00;;
11996;SDS011;6058;48.704;9.474;2023-02-11T04:57:21;23.90;;;12.90;;
11996;SDS011;6058;48.704;9.474;2023-02-11T04:59:48;23.70;;;12.80;;
11996;SDS011;6058;48.704;9.474;2023-02-11T05:02:15;25.97;;;13.90;;
11996;SDS011;6058;48.704;9.474;2023-02-11T05:04:44;19.03;;;11.83;;
11996;SDS011;6058;48.704;9.474;2023-02-11T05:07:11;14.67;;;9.27;;
11996;SDS011;6058;48.704;9.474;2023-02-11T05:09:38;25.67;;;13.40;;
11996;SDS011;6058;48.704;9.474;2023-02-11T05:12:05;23.03;;;12.97;;
11996;SDS011;6058;48.704;9.474;2023-02-11T05:14:32;22.50;;;14.00;;
11996;SDS011;6058;48.704;9.474;2023-02-11T05:17:00;23.13;;;13.00;;
11996;SDS011;6058;48.704;9.474;2023-02-11T05:19:27;20.90;;;13.10;;
11996;SDS011;6058;48.704;9.474;2023-02-11T05:21:56;27.80;;;13.53;;
11996;SDS011;6058;48.704;9.474;2023-02-11T05:24:23;26.63;;;14.10;;
11996;SDS011;6058;48.704;9.474;2023-02-11T05:26:50;27.80;;;14.00;;
11996;SDS011;6058;48.704;9.474;2023-02-11T05:29:17;28.60;;;15.40;;
11996;SDS011;6058;48.704;9.474;2023-02-11T05:31:44;24.63;;;13.87;;
11996;SDS011;6058;48.704;9.474;2023-02-11T05:34:12;25.43;;;12.77;;
11996;SDS011;6058;48.704;9.474;2023-02-11T05:36:39;22.67;;;12.93;;
11996;SDS011;6058;48.704;9.474;2023-02-11T05:39:07;28.20;;;14.37;;
11996;SDS011;6058;48.704;9.474;2023-02-11T05:41:34;25.70;;;13.83;;
11996;SDS011;6058;48.704;9.474;2023-02-11T05:44:02;19.77;;;11.67;;
11996;SDS011;6058;48.704;9.474;2023-02-11T05:46:29;23.33;;;12.43;;
11996;SDS011;6058;48.704;9.474;2023-02-11T05:48:56;29.43;;;15.30;;
11996;SDS011;6058;48.704;9.474;2023-02-11T05:51:23;24.93;;;13.70;;
11996;SDS011;6058;48.704;9.474;2023-02-11T05:53:50;24.40;;;13.87;;
11996;SDS011;6058;48.704;9.474;2023-02-11T05:56:19;25.83;;;13.83;;
11996;SDS011;6058;48.704;9.474;2023-02-11T05:58:46;26.03;;;14.97;;
11996;SDS011;6058;48.704;9.474;2023-02-11T06:01:13;26.57;;;13.70;;
11996;SDS011;6058;48.704;9.474;2023-02-11T06:03:40;25.40;;;14.40;;
11996;SDS011;6058;48.704;9.474;2023-02-11T06:06:08;27.90;;;14.07;;
11996;SDS011;6058;48.704;9.474;2023-02-11T06:08:35;28.83;;;15.17;;
11996;SDS011;6058;48.704;9.474;2023-02-11T06:11:03;23.63;;;13.33;;
11996;SDS011;6058;48.704;9.474;2023-02-11T06:13:31;24.30;;;14.37;;
11996;SDS011;6058;48.704;9.474;2023-02-11T06:15:59;25.13;;;14.53;;
11996;SDS011;6058;48.704;9.474;2023-02-11T06:18:26;24.70;;;13.47;;
11996;SDS011;6058;48.704;9.474;2023-02-11T06:20:53;25.63;;;14.97;;
11996;SDS011;6058;48.704;9.474;2023-02-11T06:23:20;26.03;;;14.57;;
11996;SDS011;6058;48.704;9.474;2023-02-11T06:25:47;24.10;;;13.77;;
11996;SDS011;6058;48.704;9.474;2023-02-11T06:28:15;26.37;;;13.57;;
11996;SDS011;6058;48.704;9.474;2023-02-11T06:30:43;26.63;;;14.93;;
11996;SDS011;6058;48.704;9.474;2023-02-11T06:33:10;24.67;;;14.03;;
11996;SDS011;6058;48.704;9.474;2023-02-11T06:35:37;27.80;;;13.97;;
11996;SDS011;6058;48.704;9.474;2023-02-11T06:38:05;26.93;;;15.00;;
11996;SDS011;6058;48.704;9.474;2023-02-11T06:40:32;26.47;;;14.80;;
11996;SDS011;6058;48.704;9.474;2023-02-11T06:42:59;26.27;;;14.67;;
11996;SDS011;6058;48.704;9.474;2023-02-11T06:45:26;28.03;;;15.00;;
11996;SDS011;6058;48.704;9.474;2023-02-11T06:47:54;23.93;;;14.27;;
11996;SDS011;6058;48.704;9.474;2023-02-11T06:50:21;28.00;;;15.10;;
11996;SDS011;6058;48.704;9.474;2023-02-11T06:52:49;25.40;;;13.83;;
11996;SDS011;6058;48.704;9.474;2023-02-11T06:55:16;22.47;;;14.00;;
11996;SDS011;6058;48.704;9.474;2023-02-11T06:57:43;29.23;;;14.07;;
11996;SDS011;6058;48.704;9.474;2023-02-11T07:00:11;24.23;;;14.97;;
11996;SDS011;6058;48.704;9.474;2023-02-11T07:02:38;21.83;;;13.17;;
11996;SDS011;6058;48.704;9.474;2023-02-11T07:05:07;24.13;;;14.20;;
11996;SDS011;6058;48.704;9.474;2023-02-11T07:07:34;25.67;;;15.20;;
11996;SDS011;6058;48.704;9.474;2023-02-11T07:10:02;23.70;;;13.77;;
11996;SDS011;6058;48.704;9.474;2023-02-11T07:12:29;25.43;;;13.83;;
11996;SDS011;6058;48.704;9.474;2023-02-11T07:14:57;29.87;;;13.37;;
11996;SDS011;6058;48.704;9.474;2023-02-11T07:17:24;24.30;;;13.47;;
11996;SDS011;6058;48.704;9.474;2023-02-11T07:19:51;25.40;;;13.90;;
11996;SDS011;6058;48.704;9.474;2023-02-11T07:22:19;28.43;;;14.93;;
11996;SDS011;6058;48.704;9.474;2023-02-11T07:24:47;28.53;;;15.13;;
11996;SDS011;6058;48.704;9.474;2023-02-11T07:27:14;25.97;;;14.87;;
11996;SDS011;6058;48.704;9.474;2023-02-11T07:29:41;28.43;;;15.57;;
11996;SDS011;6058;48.704;9.474;2023-02-11T07:32:10;26.90;;;15.53;;
11996;SDS011;6058;48.704;9.474;2023-02-11T07:34:37;26.23;;;15.00;;
11996;SDS011;6058;48.704;9.474;2023-02-11T07:39:56;24.87;;;13.80;;
11996;SDS011;6058;48.704;9.474;2023-02-11T07:45:07;22.43;;;13.03;;
11996;SDS011;6058;48.704;9.474;2023-02-11T07:47:35;26.20;;;14.53;;
11996;SDS011;6058;48.704;9.474;2023-02-11T07:50:02;26.37;;;15.73;;
11996;SDS011;6058;48.704;9.474;2023-02-11T07:52:30;26.70;;;14.03;;
11996;SDS011;6058;48.704;9.474;2023-02-11T07:54:59;30.53;;;18.47;;
11996;SDS011;6058;48.704;9.474;2023-02-11T07:57:26;27.97;;;16.57;;
11996;SDS011;6058;48.704;9.474;2023-02-11T07:59:53;26.73;;;15.67;;
11996;SDS011;6058;48.704;9.474;2023-02-11T08:02:20;28.40;;;15.33;;
11996;SDS011;6058;48.704;9.474;2023-02-11T08:04:47;27.67;;;16.37;;
11996;SDS011;6058;48.704;9.474;2023-02-11T08:07:15;28.80;;;16.10;;
11996;SDS011;6058;48.704;9.474;2023-02-11T08:09:42;32.33;;;17.17;;
11996;SDS011;6058;48.704;9.474;2023-02-11T08:12:11;30.27;;;16.43;;
11996;SDS011;6058;48.704;9.474;2023-02-11T08:14:38;27.70;;;16.20;;
11996;SDS011;6058;48.704;9.474;2023-02-11T08:17:05;33.50;;;16.20;;
11996;SDS011;6058;48.704;9.474;2023-02-11T08:19:32;25.33;;;16.10;;
11996;SDS011;6058;48.704;9.474;2023-02-11T08:21:59;30.53;;;16.20;;
11996;SDS011;6058;48.704;9.474;2023-02-11T08:24:27;25.83;;;16.13;;
11996;SDS011;6058;48.704;9.474;2023-02-11T08:26:54;31.37;;;17.20;;
11996;SDS011;6058;48.704;9.474;2023-02-11T08:29:22;27.97;;;15.73;;
11996;SDS011;6058;48.704;9.474;2023-02-11T08:31:49;28.57;;;16.53;;
11996;SDS011;6058;48.704;9.474;2023-02-11T08:34:17;29.73;;;16.10;;
11996;SDS011;6058;48.704;9.474;2023-02-11T08:36:44;30.80;;;16.93;;
11996;SDS011;6058;48.704;9.474;2023-02-11T08:39:12;25.50;;;16.80;;
11996;SDS011;6058;48.704;9.474;2023-02-11T08:41:39;26.90;;;15.90;;
11996;SDS011;6058;48.704;9.474;2023-02-11T08:44:06;27.27;;;16.50;;
11996;SDS011;6058;48.704;9.474;2023-02-11T08:46:35;34.73;;;16.33;;
11996;SDS011;6058;48.704;9.474;2023-02-11T08:49:02;31.50;;;18.80;;
11996;SDS011;6058;48.704;9.474;2023-02-11T08:51:29;27.77;;;16.93;;
11996;SDS011;6058;48.704;9.474;2023-02-11T08:53:57;32.30;;;17.17;;
11996;SDS011;6058;48.704;9.474;2023-02-11T08:56:24;30.43;;;15.73;;
11996;SDS011;6058;48.704;9.474;2023-02-11T08:58:52;27.70;;;16.90;;
11996;SDS011;6058;48.704;9.474;2023-02-11T09:01:20;26.17;;;15.97;;
11996;SDS011;6058;48.704;9.474;2023-02-11T09:03:49;28.00;;;16.60;;
11996;SDS011;6058;48.704;9.474;2023-02-11T09:06:17;28.27;;;16.63;;
11996;SDS011;6058;48.704;9.474;2023-02-11T09:08:44;30.63;;;17.33;;
11996;SDS011;6058;48.704;9.474;2023-02-11T09:11:13;27.93;;;15.10;;
11996;SDS011;6058;48.704;9.474;2023-02-11T09:13:40;29.93;;;17.43;;
11996;SDS011;6058;48.704;9.474;2023-02-11T09:16:12;31.87;;;17.63;;
11996;SDS011;6058;48.704;9.474;2023-02-11T09:18:42;33.43;;;18.30;;
11996;SDS011;6058;48.704;9.474;2023-02-11T09:21:11;28.93;;;16.87;;
11996;SDS011;6058;48.704;9.474;2023-02-11T09:23:38;29.77;;;17.67;;
11996;SDS011;6058;48.704;9.474;2023-02-11T09:26:08;31.67;;;17.70;;
11996;SDS011;6058;48.704;9.474;2023-02-11T09:28:35;34.27;;;18.43;;
11996;SDS011;6058;48.704;9.474;2023-02-11T09:31:03;28.93;;;17.70;;
11996;SDS011;6058;48.704;9.474;2023-02-11T09:33:31;29.03;;;17.50;;
11996;SDS011;6058;48.704;9.474;2023-02-11T09:38:46;31.63;;;17.87;;
11996;SDS011;6058;48.704;9.474;2023-02-11T09:41:20;29.70;;;17.73;;
11996;SDS011;6058;48.704;9.474;2023-02-11T09:43:52;28.40;;;16.33;;
11996;SDS011;6058;48.704;9.474;2023-02-11T09:46:19;27.30;;;15.93;;
11996;SDS011;6058;48.704;9.474;2023-02-11T09:48:48;25.43;;;16.43;;
11996;SDS011;6058;48.704;9.474;2023-02-11T09:51:18;27.13;;;15.73;;
11996;SDS011;6058;48.704;9.474;2023-02-11T09:53:47;21.80;;;12.37;;
11996;SDS011;6058;48.704;9.474;2023-02-11T09:56:17;27.67;;;15.47;;
11996;SDS011;6058;48.704;9.474;2023-02-11T09:58:44;24.17;;;12.70;;
11996;SDS011;6058;48.704;9.474;2023-02-11T10:01:13;24.60;;;14.10;;
11996;SDS011;6058;48.704;9.474;2023-02-11T10:03:52;26.30;;;15.03;;
11996;SDS011;6058;48.704;9.474;2023-02-11T10:06:28;25.23;;;14.50;;
11996;SDS011;6058;48.704;9.474;2023-02-11T10:09:00;23.97;;;14.43;;
11996;SDS011;6058;48.704;9.474;2023-02-11T10:11:33;23.17;;;13.93;;
11996;SDS011;6058;48.704;9.474;2023-02-11T10:14:05;25.77;;;14.07;;
11996;SDS011;6058;48.704;9.474;2023-02-11T10:16:40;21.83;;;13.57;;
11996;SDS011;6058;48.704;9.474;2023-02-11T10:19:18;25.60;;;13.37;;
11996;SDS011;6058;48.704;9.474;2023-02-11T10:21:50;19.50;;;12.33;;
11996;SDS011;6058;48.704;9.474;2023-02-11T10:24:19;24.10;;;13.50;;
11996;SDS011;6058;48.704;9.474;2023-02-11T10:26:46;23.97;;;12.87;;
11996;SDS011;6058;48.704;9.474;2023-02-11T10:29:19;25.33;;;14.07;;
11996;SDS011;6058;48.704;9.474;2023-02-11T10:31:49;25.27;;;12.70;;
11996;SDS011;6058;48.704;9.474;2023-02-11T10:34:16;23.70;;;13.87;;
11996;SDS011;6058;48.704;9.474;2023-02-11T10:36:43;22.60;;;13.40;;
11996;SDS011;6058;48.704;9.474;2023-02-11T10:39:12;21.10;;;13.30;;
11996;SDS011;6058;48.704;9.474;2023-02-11T10:41:42;26.80;;;14.00;;
11996;SDS011;6058;48.704;9.474;2023-02-11T10:44:12;23.93;;;13.93;;
11996;SDS011;6058;48.704;9.474;2023-02-11T10:46:43;21.83;;;12.47;;
11996;SDS011;6058;48.704;9.474;2023-02-11T10:49:11;24.03;;;14.00;;
11996;SDS011;6058;48.704;9.474;2023-02-11T10:52:07;22.93;;;13.60;;
11996;SDS011;6058;48.704;9.474;2023-02-11T10:54:38;18.80;;;11.67;;
11996;SDS011;6058;48.704;9.474;2023-02-11T11:00:00;20.40;;;12.27;;
11996;SDS011;6058;48.704;9.474;2023-02-11T11:02:30;23.80;;;13.67;;
11996;SDS011;6058;48.704;9.474;2023-02-11T11:05:00;23.40;;;13.00;;
11996;SDS011;6058;48.704;9.474;2023-02-11T11:07:29;23.50;;;13.03;;
11996;SDS011;6058;48.704;9.474;2023-02-11T11:09:57;21.67;;;11.03;;
11996;SDS011;6058;48.704;9.474;2023-02-11T11:12:28;22.27;;;12.57;;
11996;SDS011;6058;48.704;9.474;2023-02-11T11:14:56;20.43;;;10.50;;
11996;SDS011;6058;48.704;9.474;2023-02-11T11:17:24;22.40;;;12.47;;
11996;SDS011;6058;48.704;9.474;2023-02-11T11:22:37;20.63;;;12.13;;
11996;SDS011;6058;48.704;9.474;2023-02-11T11:25:23;22.33;;;12.93;;
11996;SDS011;6058;48.704;9.474;2023-02-11T11:27:59;22.00;;;13.97;;
11996;SDS011;6058;48.704;9.474;2023-02-11T11:30:29;24.30;;;13.85;;
11996;SDS011;6058;48.704;9.474;2023-02-11T11:32:58;17.17;;;11.90;;
11996;SDS011;6058;48.704;9.474;2023-02-11T11:35:27;22.07;;;11.47;;
11996;SDS011;6058;48.704;9.474;2023-02-11T11:37:57;19.70;;;11.77;;
11996;SDS011;6058;48.704;9.474;2023-02-11T11:40:27;18.87;;;11.57;;
11996;SDS011;6058;48.704;9.474;2023-02-11T11:43:02;19.77;;;12.03;;
11996;SDS011;6058;48.704;9.474;2023-02-11T11:45:29;19.13;;;11.40;;
11996;SDS011;6058;48.704;9.474;2023-02-11T11:47:59;19.17;;;11.17;;
11996;SDS011;6058;48.704;9.474;2023-02-11T11:50:29;13.77;;;8.80;;
11996;SDS011;6058;48.704;9.474;2023-02-11T11:52:59;20.40;;;11.00;;
11996;SDS011;6058;48.704;9.474;2023-02-11T11:55:30;16.23;;;10.23;;
11996;SDS011;6058;48.704;9.474;2023-02-11T11:57:59;15.63;;;9.30;;
11996;SDS011;6058;48.704;9.474;2023-02-11T12:00:27;18.00;;;10.97;;
11996;SDS011;6058;48.704;9.474;2023-02-11T12:03:08;16.83;;;10.47;;
11996;SDS011;6058;48.704;9.474;2023-02-11T12:05:41;16.83;;;10.20;;
11996;SDS011;6058;48.704;9.474;2023-02-11T12:08:10;16.90;;;8.73;;
11996;SDS011;6058;48.704;9.474;2023-02-11T12:10:47;18.30;;;10.07;;
11996;SDS011;6058;48.704;9.474;2023-02-11T12:13:27;15.37;;;10.57;;
11996;SDS011;6058;48.704;9.474;2023-02-11T12:16:03;13.60;;;8.30;;
11996;SDS011;6058;48.704;9.474;2023-02-11T12:18:39;17.20;;;10.03;;
11996;SDS011;6058;48.704;9.474;2023-02-11T12:21:19;15.60;;;9.77;;
11996;SDS011;6058;48.704;9.474;2023-02-11T12:23:51;12.70;;;6.93;;
11996;SDS011;6058;48.704;9.474;2023-02-11T12:26:28;13.13;;;8.13;;
11996;SDS011;6058;48.704;9.474;2023-02-11T12:29:00;10.67;;;7.03;;
11996;SDS011;6058;48.704;9.474;2023-02-11T12:31:39;13.00;;;7.80;;
11996;SDS011;6058;48.704;9.474;2023-02-11T12:34:16;10.10;;;6.50;;
11996;SDS011;6058;48.704;9.474;2023-02-11T12:36:50;14.20;;;8.27;;
11996;SDS011;6058;48.704;9.474;2023-02-11T12:39:25;15.37;;;8.20;;
11996;SDS011;6058;48.704;9.474;2023-02-11T12:42:04;11.53;;;7.47;;
11996;SDS011;6058;48.704;9.474;2023-02-11T12:44:55;11.07;;;7.03;;
11996;SDS011;6058;48.704;9.474;2023-02-11T12:47:26;13.23;;;7.47;;
11996;SDS011;6058;48.704;9.474;2023-02-11T12:50:03;12.83;;;7.43;;
11996;SDS011;6058;48.704;9.474;2023-02-11T12:52:39;8.33;;;6.07;;
11996;SDS011;6058;48.704;9.474;2023-02-11T12:55:13;9.43;;;5.83;;
11996;SDS011;6058;48.704;9.474;2023-02-11T12:57:42;7.13;;;5.10;;
11996;SDS011;6058;48.704;9.474;2023-02-11T13:00:12;10.40;;;6.20;;
11996;SDS011;6058;48.704;9.474;2023-02-11T13:02:43;10.63;;;7.23;;
11996;SDS011;6058;48.704;9.474;2023-02-11T13:05:19;14.20;;;8.17;;
11996;SDS011;6058;48.704;9.474;2023-02-11T13:07:48;9.90;;;6.63;;
11996;SDS011;6058;48.704;9.474;2023-02-11T13:10:21;10.10;;;6.90;;
11996;SDS011;6058;48.704;9.474;2023-02-11T13:12:50;13.03;;;7.17;;
11996;SDS011;6058;48.704;9.474;2023-02-11T13:15:49;14.60;;;9.00;;
11996;SDS011;6058;48.704;9.474;2023-02-11T13:18:20;12.47;;;8.50;;
11996;SDS011;6058;48.704;9.474;2023-02-11T13:20:52;12.07;;;8.27;;
11996;SDS011;6058;48.704;9.474;2023-02-11T13:23:22;13.20;;;8.43;;
11996;SDS011;6058;48.704;9.474;2023-02-11T13:25:52;13.07;;;8.33;;
11996;SDS011;6058;48.704;9.474;2023-02-11T13:28:24;12.17;;;8.40;;
11996;SDS011;6058;48.704;9.474;2023-02-11T13:30:51;14.50;;;7.43;;
11996;SDS011;6058;48.704;9.474;2023-02-11T13:33:30;12.00;;;8.10;;
11996;SDS011;6058;48.704;9.474;2023-02-11T13:36:15;11.13;;;7.30;;
11996;SDS011;6058;48.704;9.474;2023-02-11T13:38:50;12.87;;;7.47;;
11996;SDS011;6058;48.704;9.474;2023-02-11T13:41:19;12.43;;;7.47;;
11996;SDS011;6058;48.704;9.474;2023-02-11T13:43:59;12.53;;;7.90;;
11996;SDS011;6058;48.704;9.474;2023-02-11T13:46:28;13.70;;;7.60;;
11996;SDS011;6058;48.704;9.474;2023-02-11T13:48:55;11.00;;;8.33;;
11996;SDS011;6058;48.704;9.474;2023-02-11T13:51:34;10.80;;;7.40;;
11996;SDS011;6058;48.704;9.474;2023-02-11T13:54:02;11.23;;;7.93;;
11996;SDS011;6058;48.704;9.474;2023-02-11T13:56:31;12.33;;;7.33;;
11996;SDS011;6058;48.704;9.474;2023-02-11T13:59:00;10.40;;;7.57;;
11996;SDS011;6058;48.704;9.474;2023-02-11T14:01:40;9.37;;;6.37;;
11996;SDS011;6058;48.704;9.474;2023-02-11T14:04:18;10.90;;;6.67;;
11996;SDS011;6058;48.704;9.474;2023-02-11T14:07:23;9.37;;;6.50;;
11996;SDS011;6058;48.704;9.474;2023-02-11T14:13:04;9.97;;;6.63;;
11996;SDS011;6058;48.704;9.474;2023-02-11T14:15:37;11.07;;;7.30;;
11996;SDS011;6058;48.704;9.474;2023-02-11T14:20:46;9.23;;;6.13;;
11996;SDS011;6058;48.704;9.474;2023-02-11T14:23:24;9.90;;;7.07;;
11996;SDS011;6058;48.704;9.474;2023-02-11T14:25:54;9.03;;;6.40;;
11996;SDS011;6058;48.704;9.474;2023-02-11T14:28:23;9.97;;;6.50;;
11996;SDS011;6058;48.704;9.474;2023-02-11T14:30:57;11.00;;;6.73;;
11996;SDS011;6058;48.704;9.474;2023-02-11T14:33:37;9.53;;;7.00;;
11996;SDS011;6058;48.704;9.474;2023-02-11T14:36:12;13.60;;;6.80;;
11996;SDS011;6058;48.704;9.474;2023-02-11T14:38:44;11.57;;;6.53;;
11996;SDS011;6058;48.704;9.474;2023-02-11T14:41:16;11.03;;;7.27;;
11996;SDS011;6058;48.704;9.474;2023-02-11T14:43:45;12.70;;;7.40;;
11996;SDS011;6058;48.704;9.474;2023-02-11T14:46:21;14.70;;;7.93;;
11996;SDS011;6058;48.704;9.474;2023-02-11T14:48:49;12.13;;;8.63;;
11996;SDS011;6058;48.704;9.474;2023-02-11T14:51:18;17.20;;;8.50;;
11996;SDS011;6058;48.704;9.474;2023-02-11T14:53:48;17.40;;;8.27;;
11996;SDS011;6058;48.704;9.474;2023-02-11T14:56:17;14.70;;;8.17;;
11996;SDS011;6058;48.704;9.474;2023-02-11T14:58:46;13.83;;;7.73;;
11996;SDS011;6058;48.704;9.474;2023-02-11T15:01:24;17.37;;;9.37;;
11996;SDS011;6058;48.704;9.474;2023-02-11T15:03:52;15.33;;;8.90;;
11996;SDS011;6058;48.704;9.474;2023-02-11T15:06:21;15.73;;;9.60;;
11996;SDS011;6058;48.704;9.474;2023-02-11T15:08:51;15.83;;;9.40;;
11996;SDS011;6058;48.704;9.474;2023-02-11T15:11:19;14.83;;;9.40;;
11996;SDS011;6058;48.704;9.474;2023-02-11T15:13:47;16.27;;;9.77;;
11996;SDS011;6058;48.704;9.474;2023-02-11T15:16:16;16.50;;;9.27;;